Terminal Aerodrome Forecast
Issued by NWS Denver/Boulder, CO

Home | Current Version | Previous Version | Text Only | Print | Product List | Glossary On
Versions: 1 2 3 4 5 6 7 8 9 10 11 12 13 14 15 16 17 18 19 20 21 22 23 24 25 26 27 28 29 30 31 32 33 34 35 36 37 38 39 40 41 42 43 44 45 46 47 48 49 50
000
FTUS45 KBOU 301738
TAFDEN
TAF
KDEN 301738Z 3018/3124 22009KT P6SM FEW150 SCT200
     FM302000 19007KT P6SM FEW090 SCT150 BKN200
     FM302200 17009KT P6SM SCT090 BKN140
      TEMPO 3023/3102 VRB20G32KT -TSRA BKN090CB
     FM310400 16009KT P6SM FEW090 BKN140
     FM310700 20010KT P6SM SCT140 SCT200
     FM312000 05009KT P6SM SCT080 BKN150 PROB30 3120/3124 VRB30G32KT
      -TSRA BKN080CB=

USA.gov is the U.S. government's official web portal to all federal, state and local government web resources and services.